NWS Home NWS Lubbock West Texas Mesonet                      Daily Summary For 05/03/2021

Latest   N   C   S   Daily Sum   3hrΔ   24hrΔ   Soil Data 
Site Map   24hr Precip   72hr Precip   Google Plot


Station Time of Last Max Temp Min Temp Max/Min Dew Pt. Max/Min RH 10m Avg Wind 2m Avg Wind Peak Gust @ 33ft (mph) Potential Evapotranspiration
mm/day or in/day
Rain Sum Solar Rad
MJ/m^2
% Clear Day Red Flag
Abernathy 5ENE 11:59 PM 72 58 60 /55 96 / 60 17.9  (SW) 14.2 48.2 mph 343° @ 1000 PM 2.8 or 0.11 0.22 10.6 77.8 0
Adrian 6WSW 11:59 PM 72 58 60 /55 96 / 60 21.1  (N) 17.1 39.8 mph 13° @ 0110 AM 2 or 0.08 0.31 4.1 31.6 0
Aiken 3WSW 11:59 PM 72 58 60 /55 96 / 60 17.4  (SW) 12.6 40.7 mph 12° @ 1139 PM 2.3 or 0.09 0.40 7.4 54.8 0
Amarillo 15NNW 11:59 PM 72 58 60 /55 96 / 60 17.8  (NW) 13.7 40.8 mph 2° @ 0108 AM 2.5 or 0.1 0.33 3.6 28.1 0
Amarillo 7SSE 11:59 PM 72 58 60 /55 96 / 60 19.2  (NW) 14.5 36.6 mph 14° @ 0813 PM 2.3 or 0.09 0.08 5.6 43.1 0
Amarillo 9NNE 11:59 PM 72 58 60 /55 96 / 60 18  (W) 14.1 32.2 mph 4° @ 0335 AM 2.3 or 0.09 0.35 4 30.7 0
Amherst 1NE 11:59 PM 72 58 60 /55 96 / 60 18.8  (SW) 13.8 48.2 mph 355° @ 0951 PM 2.5 or 0.1 0.21 7.1 52.3 1
Andrews 2E 11:59 PM 72 58 60 /55 96 / 60 11.8  (SW) 7.2 42.7 mph 8° @ 0815 PM 4.1 or 0.16 0.00 27.3 191.3 0
Anton 6SSW 11:55 PM 72 58 60 /55 96 / 60 19.2  (SW) 14.9 50.9 mph 346° @ 0935 PM 3 or 0.12 0.13 13.8 101.3 0
Aspermont 3NE 11:59 PM 72 58 60 /55 96 / 60 11.9  (S) 7.7 38.4 mph 317° @ 1050 PM 2.8 or 0.11 0.02 16.7 121.8 0
Big Bend NP - Castolon 11:59 PM 72 58 60 /55 96 / 60 5.9  (SE) 4.7 22.9 mph 239° @ 0620 PM 3.3 or 0.13 0.00 30.2 193.2 0
Big Bend NP - Persimmon Gap 11:59 PM 72 58 60 /55 96 / 60 7.2  (S) 5.4 24.8 mph 236° @ 0529 PM 3.6 or 0.14 0.00 28.7 185.2 0
Big Lake 1WNW 11:59 PM 72 58 60 /55 96 / 60 11.5  (S) 8.8 32.7 mph 297° @ 1041 AM 4.6 or 0.18 0.00 30.5 206.9 16
Bootleg 11WNW 11:59 PM 72 58 60 /55 96 / 60 20.8  (NW) 15.8 35.7 mph 7° @ 0632 AM 2.3 or 0.09 0.23 3.2 24.2 0
Borger 7E 11:59 PM 72 58 60 /55 96 / 60 18.5  (S) 14.3 39.5 mph 158° @ 1210 AM 2.3 or 0.09 0.31 6.6 51.7 0
Boys Ranch 1WSW 11:59 PM 72 58 60 /55 96 / 60 14.8  (N) 12 45.7 mph 7° @ 1204 AM 2 or 0.08 0.40 3.1 24.3 0
Brownfield 2S 11:59 PM 72 58 60 /55 96 / 60 16.4  (SW) 13.5 50.4 mph 357° @ 0925 PM 3.6 or 0.14 0.48 22.7 163.4 0
Canadian 6E 11:59 PM 72 58 60 /55 96 / 60 22.9  (NE) 17.3 48.5 mph 8° @ 0804 PM 2 or 0.08 0.37 10.8 86.2 0
Caprock Canyons State Park 11:59 PM 72 58 60 /55 96 / 60 12.6  (W) 8.7 34.9 mph 20° @ 0806 PM 3.6 or 0.14 0.34 8.5 64.3 8
Childress 2NNE 11:55 PM 72 58 60 /55 96 / 60 14.6  (SE) 10.3 36.4 mph 339° @ 0925 PM 2.8 or 0.11 0.08 12.8 97.2 0
Clarendon 2WSW 11:55 PM 72 58 60 /55 96 / 60 18.2  (SE) 13.6 36.5 mph 353° @ 0755 PM 2.3 or 0.09 0.64 10.5 80.7 0
Claude 12SW 11:59 PM 72 58 60 /55 96 / 60 18.9  (NE) 13.6 33.5 mph 347° @ 0727 PM 2 or 0.08 0.73 8.8 67.2 0
Clyde 2WNW 11:59 PM 72 58 60 /55 96 / 60 12.1  (S) 8.8 30 mph 335° @ 1018 PM 3.6 or 0.14 0.00 27.3 193.5 0
Colorado City 5NW 11:59 PM 72 58 60 /55 96 / 60 10.4  (S) 6.8 30.1 mph 8° @ 0627 PM 3.6 or 0.14 0.14 25.6 181.3 0
Comanche Springs 11:59 PM 72 58 60 /55 96 / 60 9.8  (SE) 7.2 37.3 mph 358° @ 1035 PM 2 or 0.08 0.00 11.4 85.7 0
Coyanosa 2N 11:59 PM 72 58 60 /55 96 / 60 12.7  (SW) 8.9 34 mph 16° @ 0947 PM 4.8 or 0.19 0.00 30.4 206.7 26
Crane 1NNW 11:59 PM 72 58 60 /55 96 / 60 12.9  (SW) 10.3 43.5 mph 356° @ 0917 PM 5.1 or 0.2 0.00 30.8 210.2 10
Crowell 1E 11:59 PM 72 58 60 /55 96 / 60 12.2  (S) 9.2 31.6 mph 349° @ 1111 PM 2 or 0.08 0.12 11.2 83.9 0
Dell City 11:59 PM 72 58 60 /55 96 / 60 17  (W) 12.7 37.5 mph 23° @ 0915 PM 5.1 or 0.2 0.00 29.5 203 53
Denver City 7WNW 11:55 PM 72 58 60 /55 96 / 60 15.8  (SW) 11.8 48.2 mph 3° @ 0710 PM 3.8 or 0.15 0.29 26.9 192 0
Dimmitt 2NE 11:55 PM 72 58 60 /55 96 / 60 21.1  (W) 16.3 33.2 mph 332° @ 0840 PM 2.5 or 0.1 0.25 5 37.9 5
Doole 3WNW 11:59 PM 72 58 60 /55 96 / 60 11.8  (SW) 9 22.3 mph 221° @ 0538 AM 5.1 or 0.2 0.00 29.3 201.6 0
Dora NM 2SW 11:55 PM 72 58 60 /55 96 / 60 17.9  (SW) 12.9 43.8 mph 18° @ 0825 PM 2.8 or 0.11 0.48 6.1 44.4 5
Dozier 3W 11:59 PM 72 58 60 /55 96 / 60 14.7  (SE) 9.9 35.7 mph 356° @ 0935 PM 2.3 or 0.09 0.05 11.7 91 0
Earth 9WSW 11:59 PM 72 58 60 /55 96 / 60 18.3  (SW) 14.8 39 mph 11° @ 1010 PM 3.6 or 0.14 0.64 5.7 42.2 3
Endee NM 2SW 11:59 PM 72 58 60 /55 96 / 60 18.9  (N) 14.2 38.9 mph 15° @ 1219 AM 2.5 or 0.1 0.20 3.3 25 0
Estelline 3SSE 11:59 PM 72 58 60 /55 96 / 60 12.6  (SE) 8.8 34.3 mph 6° @ 0932 PM 2.8 or 0.11 0.00 10.9 83 0
Floydada 2NNE 11:55 PM 72 58 60 /55 96 / 60 16  (SW) 12 46.6 mph 332° @ 1020 PM 2.8 or 0.11 0.38 7.3 54.3 0
Fluvanna 3WNW 11:55 PM 72 58 60 /55 96 / 60 15.3  (SW) 11.8 59.3 mph 344° @ 0735 PM 3.3 or 0.13 0.39 21.2 152.1 0
Fort Chadbourne 11:59 PM 72 58 60 /55 96 / 60 8.4  (S) 5.3 27 mph 358° @ 0942 PM 3.6 or 0.14 0.00 27.7 194.1 0
Fort Lancaster 11:59 PM 72 58 60 /55 96 / 60 7.5  (E) 4.5 39.4 mph 8° @ 1143 PM 3.8 or 0.15 0.00 29 194.3 0
Fort Lewis CO 11:59 PM 72 58 60 /55 96 / 60 10  (W) 7.4 36.5 mph 307° @ 0254 AM 1.5 or 0.06 0.00 25.4 205.1 0
Fort McKavett 11:59 PM 72 58 60 /55 96 / 60 6  (S) 2.7 30.7 mph 2° @ 1153 PM 3.6 or 0.14 0.00 28.8 194 0
Friona 2NE 11:55 PM 72 58 60 /55 96 / 60 20.4  (NW) 15.5 37.1 mph 335° @ 0740 PM 2.5 or 0.1 0.21 4.4 33.5 0
Fritch 1WNW 11:59 PM 72 58 60 /55 96 / 60 16.8  (NW) 12.6 36.2 mph 18° @ 0425 PM 2.3 or 0.09 0.22 5.2 40.9 0
Gail 2ESE 11:59 PM 72 58 60 /55 96 / 60 12.7  (SW) 8.5 39.5 mph 345° @ 0721 PM 3.6 or 0.14 0.23 26.1 185.9 0
Goodlett 3W 11:55 PM 72 58 60 /55 96 / 60 14.4  (SE) 10.7 36.2 mph 346° @ 1000 PM 2.5 or 0.1 0.19 12.3 93.4 0
Goodnight 11:59 PM 72 58 60 /55 96 / 60 17.8  (NW) 13.5 37.5 mph 6° @ 0805 PM 2 or 0.08 0.24 7.6 58.2 0
Graham 5SSW 11:59 PM 72 58 60 /55 96 / 60 17.2  (W) 12.7 50.4 mph 330° @ 0902 PM 3.8 or 0.15 0.67 20.3 145.8 0
Guadalupe Mtns Natl Park 11:59 PM 72 58 60 /55 96 / 60 20.6  (W) 15.5 73.4 mph 271° @ 1235 AM 5.1 or 0.2 0.00 30.3 205 229
Guthrie 10WSW 11:59 PM 72 58 60 /55 96 / 60 13.5  (SE) 9.5 44.9 mph 341° @ 1038 PM 3 or 0.12 0.03 11.6 85.2 0
Hackberry 2SSE 11:59 PM 72 58 60 /55 96 / 60 14.1  (SE) 10.2 37.4 mph 348° @ 1134 PM 2.5 or 0.1 0.00 9.7 72.3 0
Happy 1E 11:59 PM 72 58 60 /55 96 / 60 20.8  (W) 16.7 34.6 mph 357° @ 0411 AM 2.8 or 0.11 0.39 6.3 48 0
Hart 3N 11:55 PM 72 58 60 /55 96 / 60 20.8  (W) 15.9 40.3 mph 13° @ 1115 PM 2 or 0.08 0.67 6.5 49 0
Haskell 1NW 11:55 PM 72 58 60 /55 96 / 60 12.4  (S) 9 35.4 mph 358° @ 1005 PM 2.5 or 0.1 0.05 18.8 137.3 0
Hefner 1SW 11:59 PM 72 58 60 /55 96 / 60 12  (S) 7.8 35 mph 339° @ 1236 PM 2.3 or 0.09 0.01 15.3 113.3 0
Hereford 2NW 11:55 PM 72 58 60 /55 96 / 60 19.1  (NW) 15.1 32.8 mph 8° @ 0600 PM 2.3 or 0.09 0.56 4.2 31.7 0
Hobbs NM 5NW 11:59 PM 72 58 60 /55 96 / 60 12.7  (W) 10.5 46 mph 354° @ 0656 PM 4.1 or 0.16 0.00 25.1 177.3 0
Jayton 1SSE 11:55 PM 72 58 60 /55 96 / 60 12  (S) 8.5 36.8 mph 317° @ 0835 PM 2.8 or 0.11 0.01 17.4 126.9 0
Junction 1SSW 11:59 PM 72 58 60 /55 96 / 60 3.6  (SE) 2.2 16.4 mph 209° @ 1041 AM 3 or 0.12 0.00 26.1 174.1 0
Kent 9E 11:59 PM 72 58 60 /55 96 / 60 12.5  (W) 8.7 43.8 mph 294° @ 1020 PM 4.3 or 0.17 0.00 30.7 204.8 28
Knox City 3NW 11:59 PM 72 58 60 /55 96 / 60 11  (S) 7.5 39.5 mph 293° @ 1116 PM 2 or 0.08 0.03 15.5 113.9 0
Lake Alan Henry 1NW 11:59 PM 72 58 60 /55 96 / 60 12.5  (SW) 8 38.4 mph 330° @ 0932 PM 3 or 0.12 0.43 19.3 139.4 0
Lake McClellan 2NW 11:59 PM 72 58 60 /55 96 / 60 21.6  (S) 16.4 40.9 mph 344° @ 0813 PM 2 or 0.08 0.23 10.7 83 0
Lamesa 2SE 11:55 PM 72 58 60 /55 96 / 60 11.8  (SW) 7.3 48.8 mph 296° @ 0700 PM 3.6 or 0.14 0.38 25 177.7 0
Lesley 2S 11:59 PM 72 58 60 /55 96 / 60 15.5  (E) 10.8 37.2 mph 340° @ 0712 PM 2.3 or 0.09 0.14 5.9 45.4 0
Levelland 4S 11:59 PM 72 58 60 /55 96 / 60 18.2  (SW) 14.9 47.1 mph 343° @ 0900 PM 3.3 or 0.13 0.03 17.9 130.4 0
Lomax 1SSE 11:59 PM 72 58 60 /55 96 / 60 10.9  (S) 7.9 30.2 mph 9° @ 0853 PM 4.3 or 0.17 0.00 29 202.7 0
Lubbock 3WNW TTU 11:55 PM 72 58 60 /55 96 / 60 13.7  (SW) 10 41.9 mph 315° @ 0820 PM 3 or 0.12 0.01 16.7 122.3 0
McAdoo 3NNW 11:59 PM 72 58 60 /55 96 / 60 16.1  (SW) 11.7 41.7 mph 287° @ 0942 PM 3 or 0.12 0.09 11.3 83.3 0
McCamey 1SSW 11:59 PM 72 58 60 /55 96 / 60 10.8  (SE) 8.8 37.7 mph 30° @ 1108 PM 4.6 or 0.18 0.00 29.8 201.9 88
McLean 1E 11:55 PM 72 58 60 /55 96 / 60 17.8  (SE) 14.6 40 mph 325° @ 0900 PM 2 or 0.08 0.12 13.6 105.6 0
Memphis 1NE 11:59 PM 72 58 60 /55 96 / 60 14.8  (E) 10.9 39.5 mph 9° @ 1023 PM 2.8 or 0.11 0.30 10 77.1 0
Menard 2NW 11:59 PM 72 58 60 /55 96 / 60 6  (W) 4.3 30 mph 355° @ 1139 PM 3.3 or 0.13 0.00 27 182.7 0
Mertzon 3NNE 11:59 PM 72 58 60 /55 96 / 60 9.9  (S) 7 29 mph 348° @ 1039 PM 4.3 or 0.17 0.00 27.5 187.9 0
Morton 1ENE 11:55 PM 72 58 60 /55 96 / 60 18.5  (SW) 13.5 52.3 mph 355° @ 0900 PM 2.8 or 0.11 0.14 9.7 70.7 0
Muleshoe 2SSW 11:55 PM 72 58 60 /55 96 / 60 16.7  (SW) 12.6 33.8 mph 359° @ 1125 PM 2.5 or 0.1 0.61 6.1 45.4 0
New Home 11:59 PM 72 58 60 /55 96 / 60 13.9  (SW) 10.4 43.8 mph 349° @ 0937 PM 3.3 or 0.13 0.09 21.8 157.6 0
Northfield 1S 11:55 PM 72 58 60 /55 96 / 60 12.1  (S) 8.2 30.5 mph 338° @ 0825 PM 2.5 or 0.1 0.04 7.6 57.2 0
O'Donnell 1N 11:59 PM 72 58 60 /55 96 / 60 16.3  (SW) 12.4 62.5 mph 234° @ 0622 PM 3.8 or 0.15 0.34 22.3 159.3 0
Odell 4ENE 11:59 PM 72 58 60 /55 96 / 60 14.1  (SE) 10.1 33.6 mph 12° @ 0145 PM 2.3 or 0.09 0.05 10.7 81.5 0
Olton 6S 11:55 PM 72 58 60 /55 96 / 60 19  (SW) 15.3 44.4 mph 15° @ 1045 PM 2.3 or 0.09 0.27 8 59.6 0
Paducah 10SW 11:59 PM 72 58 60 /55 96 / 60 15.1  (S) 9.1 39.5 mph 6° @ 1104 PM 2.8 or 0.11 0.00 10.8 80.6 0
Palo Duro 4E (JA Ranch) 11:59 PM 72 58 60 /55 96 / 60 15.4  (N) 10.9 38.3 mph 341° @ 0737 PM 2 or 0.08 0.19 7.5 57.7 0
Palo Duro Canyon SP Floor 11:59 PM 72 58 60 /55 96 / 60 10.4  (NW) 4.9 30.3 mph 339° @ 0812 PM 2.5 or 0.1 0.56 5.1 39.3 0
Palo Duro Canyon State Park Rim 11:59 PM 72 58 60 /55 96 / 60 16.1  (NW) 8.7 34.2 mph 4° @ 0709 PM 2.3 or 0.09 0.54 5.2 40.1 0
Palo Duro Reservoir 1NW 11:59 PM 72 58 60 /55 96 / 60 19.5  (NE) 14.6 34.9 mph 15° @ 0610 PM 2.3 or 0.09 0.42 6.2 50 0
Pampa 2E 11:55 PM 72 58 60 /55 96 / 60 20.1  (SE) 15.8 38.7 mph 355° @ 0730 PM 1.8 or 0.07 0.22 9.9 77.8 0
Panhandle 1SSW 11:59 PM 72 58 60 /55 96 / 60 18.5  (SE) 15.1 33.2 mph 359° @ 1115 PM 1.3 or 0.05 0.54 9.7 75.5 0
Plains 3N 11:55 PM 72 58 60 /55 96 / 60 17.6  (SW) 14.5 52.8 mph 358° @ 0830 PM 3.6 or 0.14 0.05 21.5 154.3 0
Plainview 1S 11:59 PM 72 58 60 /55 96 / 60 14.8  (SW) 11.5 40.6 mph 19° @ 1126 PM 2.3 or 0.09 0.19 7.2 53.7 0
Post 1NE 11:59 PM 72 58 60 /55 96 / 60 15.3  (SW) 10.3 53.7 mph 316° @ 0904 PM 3.6 or 0.14 0.10 17.3 125.4 0
Ralls 1SE 11:59 PM 72 58 60 /55 96 / 60 16.3  (SW) 13.1 46 mph 28° @ 0714 PM 3 or 0.12 0.06 16.1 117.6 0
Reese Center 11:59 PM 72 58 60 /55 96 / 60 18.3  (SW) 12.5 49.3 mph 346° @ 0931 PM 3.3 or 0.13 0.00 17.9 130.7 2
Roaring Springs 3N 11:59 PM 72 58 60 /55 96 / 60 14.8  (SW) 10.4 44.9 mph 269° @ 1010 PM 3 or 0.12 0.07 9.5 70.7 0
Romero 11SSW 11:59 PM 72 58 60 /55 96 / 60 24.8  (N) 19.7 49 mph 4° @ 1222 AM 2.3 or 0.09 0.32 5.6 43.3 0
Rotan 5W 11:59 PM 72 58 60 /55 96 / 60 13.8  (S) 9.8 63.8 mph 264° @ 0822 PM 2.5 or 0.1 0.78 25 179.5 0
San Angelo 7NW 11:55 PM 72 58 60 /55 96 / 60 7.5  (S) 5.5 26.2 mph 340° @ 1045 PM 3.6 or 0.14 0.00 27.4 188.5 0
Seagraves 1SW 11:59 PM 72 58 60 /55 96 / 60 15.2  (SW) 11.7 50.4 mph 353° @ 0828 PM 3.8 or 0.15 0.06 25.3 180.8 0
Segovia 7SSW 11:59 PM 72 58 60 /55 96 / 60 7.4  (S) 4.9 21.6 mph 181° @ 0251 AM 4.1 or 0.16 0.00 28.8 190.4 0
Seminole 2NNE 11:55 PM 72 58 60 /55 96 / 60 13.8  (SW) 10.6 45.3 mph 344° @ 0745 PM 4.1 or 0.16 0.00 5.2 182.8 0
Seymour 3NW 11:55 PM 72 58 60 /55 96 / 60 10  (SE) 7.2 29 mph 336° @ 1235 PM 2 or 0.08 0.00 14.8 110.2 0
Sierra Blanca 1SSE 11:59 PM 72 58 60 /55 96 / 60 14.3  (W) 10.9 33.9 mph 229° @ 0344 PM 4.8 or 0.19 0.00 26.6 177 28
Silverton 7ESE 11:55 PM 72 58 60 /55 96 / 60 17.4  (SW) 13 32.4 mph 353° @ 1020 PM 2.3 or 0.09 0.24 7.1 53.1 0
Slaton 2NE 11:59 PM 72 58 60 /55 96 / 60 15.8  (SW) 12.1 46 mph 317° @ 0848 PM 3.3 or 0.13 0.02 19.9 144.6 0
Smyer 11:59 PM 72 58 60 /55 96 / 60 16.9  (SW) 13.3 45.5 mph 313° @ 0747 PM 3 or 0.12 0.00 17 124.1 0
Snyder 3E 11:55 PM 72 58 60 /55 96 / 60 12.2  (S) 5.2 31.6 mph 2° @ 0835 PM 3.3 or 0.13 0.06 21.8 155.7 0
Snyder 3SSW 11:59 PM 72 58 60 /55 96 / 60 11.5  (SW) 7.8 29.5 mph 351° @ 0811 PM 3.3 or 0.13 0.21 23.9 170 0
South Plains 3ENE 11:59 PM 72 58 60 /55 96 / 60 14.4  (SW) 11 34.6 mph 8° @ 1122 PM 2.3 or 0.09 0.14 6.4 47.6 0
Spur 1W 11:55 PM 72 58 60 /55 96 / 60 12.3  (SW) 9.3 35.1 mph 343° @ 1000 PM 2.8 or 0.11 0.05 12.8 93.8 0
St. Lawrence 5SW 11:59 PM 72 58 60 /55 96 / 60 14  (S) 10.8 42.7 mph 16° @ 0856 PM 5.1 or 0.2 0.00 31 213.4 0
Stamford 5ESE 11:59 PM 72 58 60 /55 96 / 60 12.4  (S) 8.8 83.6 mph 317° @ 0930 PM 2.5 or 0.1 0.61 22.8 165.1 0
Sterling City 4WSW 11:59 PM 72 58 60 /55 96 / 60 8.1  (N) 5.5 26.4 mph 355° @ 0806 PM 3.3 or 0.13 0.00 23.5 162.9 0
Stinnett 1NNW 11:59 PM 72 58 60 /55 96 / 60 23.1  (N) 17.8 40.3 mph 3° @ 0434 PM 1.8 or 0.07 0.16 5.9 47 0
Stratford 4WNW 11:59 PM 72 58 60 /55 96 / 60 20.9  (N) 15.2 39.3 mph 360° @ 1246 AM 1.8 or 0.07 0.42 5.5 44.5 0
Sundown 8WSW 11:55 PM 72 58 60 /55 96 / 60 17.3  (SW) 11.9 50.4 mph 338° @ 0820 PM 3.6 or 0.14 0.14 15.6 113 0
Sweetwater 11SW 11:59 PM 72 58 60 /55 96 / 60 11.3  (SW) 7.9 31.5 mph 344° @ 0724 PM 3.3 or 0.13 0.01 28.5 200.9 0
Tahoka 3NNE 11:59 PM 72 58 60 /55 96 / 60 15.6  (SW) 11.2 45.3 mph 318° @ 0830 PM 3.6 or 0.14 0.19 18.8 135.4 0
Tarzan 2WNW 11:59 PM 72 58 60 /55 96 / 60 12.5  (SW) 8.7 36.5 mph 9° @ 0741 PM 4.3 or 0.17 0.00 27.4 192 0
Tatum NM 2SW 11:55 PM 72 58 60 /55 96 / 60 17.5  (SW) 13.5 47.4 mph 347° @ 0645 PM 3.6 or 0.14 0.08 19.8 141.8 0
Throckmorton 1SW 11:59 PM 72 58 60 /55 96 / 60 10.7  (S) 5.5 29.9 mph 12° @ 1042 PM 3 or 0.12 0.00 25.5 186.5 0
Truscott 2SE 11:59 PM 72 58 60 /55 96 / 60 11.6  (S) 8.1 35.6 mph 324° @ 1125 PM 1.8 or 0.07 0.21 11.9 88.9 0
Tulia 2ENE 11:55 PM 72 58 60 /55 96 / 60 18.6  (SW) 14.6 37 mph 1° @ 0720 PM 2.3 or 0.09 0.92 5.3 39.9 0
Turkey 2WSW 11:55 PM 72 58 60 /55 96 / 60 16.4  (SW) 12.6 37 mph 350° @ 1040 PM 3.3 or 0.13 0.36 7.1 53.5 0
Umbarger 3NNE 11:59 PM 72 58 60 /55 96 / 60 21.1  (NW) 16.6 36.1 mph 359° @ 0409 AM 2.3 or 0.09 0.37 4.7 35.9 0
Van Horn 3ENE 11:59 PM 72 58 60 /55 96 / 60 12.1  (W) 8.8 35.4 mph 244° @ 1240 PM 4.1 or 0.16 0.00 31.3 208.9 18
Vega 4E 11:59 PM 72 58 60 /55 96 / 60 20.8  (N) 16.5 46 mph 346° @ 1217 AM 2.3 or 0.09 0.13 4.1 31.7 0
Vigo Park 11:59 PM 72 58 60 /55 96 / 60 15.2  (SW) 10.7 34 mph 354° @ 0658 PM 1.8 or 0.07 0.54 5.2 39.5 0
Wall 2E 11:59 PM 72 58 60 /55 96 / 60 11.6  (SW) 8.9 25.7 mph 195° @ 0122 AM 4.6 or 0.18 0.00 28.4 195.1 0
Weinert 2NNE 11:59 PM 72 58 60 /55 96 / 60 12.2  (S) 8.8 33 mph 31° @ 1033 PM 2.3 or 0.09 0.04 15.6 114.5 0
Welch 11:59 PM 72 58 60 /55 96 / 60 15.5  (SW) 11.7 47.3 mph 360° @ 0932 PM 3.8 or 0.15 0.26 21.2 151.5 0
Wellington 6SE 11:59 PM 72 58 60 /55 96 / 60 19  (SE) 14.9 42.7 mph 4° @ 1010 PM 3 or 0.12 0.00 15.6 120.1 0
White River Lake 6NW 11:59 PM 72 58 60 /55 96 / 60 19.1  (SW) 14.1 48.2 mph 358° @ 0744 PM 4.6 or 0.18 0.07 19.4 141.9 79
Wolfforth 6SSW 11:59 PM 72 58 60 /55 96 / 60 18.3  (SW) 14.1 49.3 mph 309° @ 0801 PM 3.6 or 0.14 0.07 19.6 142.3 0

WestTexas Mesonet Home    Site Map/Menu  National Weather Service Lubbock   Soil Data   Latest Observation Page   Previous  Date   Next Last